Paramount Helsinki — 2CWB3 — position and weather

sailwx.info

Track history (hours):
 
Tides and Currents Weather Stations Pressure Air Temp Water Temp Dewpoint Dewpoint Depression Visibility Wind Speed Wind Dir Waves Ship Positions

Paramount Helsinki

Last reported at 2015-May-17 06:30 UTC. Time now 2015-May-25 05:33 UTC.
Position N 29°19' W 094°39'.

Length 250 m; draft 8.2 m.

Type: Ship. MMSI: 235076275.

Date/timePositionNaut miles runAvg speedWind from/ knotsBaromVisibWave heightAir tempDewpointWater temp
2015-May-17 06:30N 29°19' W 094°39'5 3.7
2015-May-17 05:18N 29°21' W 094°44'0 0.0
2015-May-17 04:15N 29°21' W 094°44'0 0.0
2015-May-17 01:33N 29°21' W 094°44'0 0.0
2015-May-17 00:33N 29°21' W 094°44'0 0.0
2015-May-16 23:33N 29°21' W 094°44'0 0.0
2015-May-16 22:33N 29°21' W 094°44'0 0.1
2015-May-16 21:34N 29°21' W 094°44'8 4.0
2015-May-16 19:34N 29°23' W 094°53'0 0.0
2015-May-15 01:33N 29°23' W 094°53'6 6.4
2015-May-15 00:33N 29°21' W 094°46'9 0.2
2015-May-13 08:25N 29°14' W 094°39'0 0.0
2015-May-13 07:31N 29°14' W 094°39'  
2015-May-09 10:04N 29°14' W 094°39'0 0.0
2015-May-09 09:31N 29°14' W 094°39'  
Track history (hours):
 
Tides and Currents Weather Stations Pressure Air Temp Water Temp Dewpoint Dewpoint Depression Visibility Wind Speed Wind Dir Waves Ship Positions

Paramount Helsinki

Last reported at 2015-May-17 06:30 UTC. Time now 2015-May-25 05:33 UTC.
Position N 29°19' W 094°39'.

Length 250 m; draft 8.2 m.

Type: Ship. MMSI: 235076275.

Date/timePositionNaut miles runAvg speedWind from/ knotsBaromVisibWave heightAir tempDewpointWater temp
2015-May-17 06:30N 29°19' W 094°39'5 3.7
2015-May-17 05:18N 29°21' W 094°44'0 0.0
2015-May-17 04:15N 29°21' W 094°44'0 0.0
2015-May-17 01:33N 29°21' W 094°44'0 0.0
2015-May-17 00:33N 29°21' W 094°44'0 0.0
2015-May-16 23:33N 29°21' W 094°44'0 0.0
2015-May-16 22:33N 29°21' W 094°44'0 0.1
2015-May-16 21:34N 29°21' W 094°44'8 4.0
2015-May-16 19:34N 29°23' W 094°53'0 0.0
2015-May-15 01:33N 29°23' W 094°53'6 6.4
2015-May-15 00:33N 29°21' W 094°46'9 0.2
2015-May-13 08:25N 29°14' W 094°39'0 0.0
2015-May-13 07:31N 29°14' W 094°39'  
2015-May-09 10:04N 29°14' W 094°39'0 0.0
2015-May-09 09:31N 29°14' W 094°39'  

Dump ship's entire track history